Terminal Aerodrome Forecast
Issued by NWS Buffalo, NY

Home | Current Version | Previous Version | Text Only | Print | Product List | Glossary On
Versions: 1 2 3 4 5 6 7 8 9 10 11 12 13 14 15 16 17 18 19 20 21 22 23 24 25 26 27
000
FTUS41 KBUF 271206 AAA
TAFBUF
TAF AMD
KBUF 271206Z 2712/2812 24010KT P6SM VCTS BKN025CB BKN070
      TEMPO 2712/2714 2SM TSRA OVC025CB
     FM271500 25015G21KT P6SM VCSH BKN035
     FM272100 26013G20KT P6SM BKN035
     FM280000 26008KT P6SM BKN120
     FM280800 22007KT P6SM SCT250=

USA.gov is the U.S. government's official web portal to all federal, state and local government web resources and services.